createdAt,value
2022-10-18T00:01:15.381Z,55.10
2022-10-18T00:16:16.850Z,55.20
2022-10-18T00:31:18.305Z,55.10
2022-10-18T00:46:19.765Z,55.00
2022-10-18T01:01:24.414Z,55.00
2022-10-18T01:16:29.011Z,54.90
2022-10-18T01:31:30.474Z,54.90
2022-10-18T01:46:31.921Z,54.90
2022-10-18T02:01:33.372Z,54.80
2022-10-18T02:16:34.809Z,54.80
2022-10-18T02:31:36.270Z,54.80
2022-10-18T02:46:37.731Z,54.70
2022-10-18T03:01:39.198Z,54.60
2022-10-18T03:16:40.723Z,54.60
2022-10-18T03:31:42.319Z,54.60
2022-10-18T03:46:43.842Z,54.60
2022-10-18T04:01:45.359Z,54.60
2022-10-18T04:16:46.842Z,54.50
2022-10-18T04:31:48.311Z,54.50
2022-10-18T04:46:49.774Z,54.50
2022-10-18T05:01:51.296Z,54.40
2022-10-18T05:16:52.801Z,54.50
2022-10-18T05:31:54.253Z,54.40
2022-10-18T05:46:55.698Z,54.40
2022-10-18T06:01:57.167Z,54.40
2022-10-18T06:16:58.611Z,54.40
2022-10-18T06:32:00.088Z,54.90
2022-10-18T06:47:01.569Z,55.00
2022-10-18T07:02:03.071Z,55.10
2022-10-18T07:32:30.201Z,55.10
2022-10-18T07:47:35.562Z,55.10
2022-10-18T08:02:37.057Z,55.70
2022-10-18T08:17:38.517Z,55.20
2022-10-18T08:32:39.969Z,55.00
2022-10-18T08:47:41.425Z,54.80
2022-10-18T09:02:42.904Z,54.50
2022-10-18T09:17:44.368Z,54.20
2022-10-18T09:32:45.838Z,54.10
2022-10-18T09:47:47.291Z,53.70
2022-10-18T10:02:48.792Z,53.10
2022-10-18T10:33:05.939Z,52.30
2022-10-18T10:48:07.405Z,51.80
2022-10-18T11:03:27.464Z,52.10
2022-10-18T11:18:30.335Z,47.60
2022-10-18T11:33:56.161Z,44.80
2022-10-18T11:48:53.253Z,38.70
2022-10-18T12:03:54.737Z,37.70
2022-10-18T12:18:56.242Z,34.80
2022-10-18T12:33:57.695Z,33.80
2022-10-18T12:48:59.149Z,32.00
2022-10-18T13:04:00.618Z,32.80
2022-10-18T13:19:02.075Z,31.60
2022-10-18T13:34:03.534Z,32.50
2022-10-18T13:49:05.054Z,33.30
2022-10-18T14:04:06.529Z,34.20
2022-10-18T14:19:07.980Z,35.00
2022-10-18T14:34:09.447Z,35.80
2022-10-18T14:49:10.901Z,36.00
2022-10-18T15:04:12.363Z,37.00
2022-10-18T15:19:13.827Z,37.60
2022-10-18T15:34:15.288Z,38.10
2022-10-18T15:49:16.725Z,38.60
2022-10-18T16:04:18.192Z,38.40
2022-10-18T16:19:19.664Z,38.90
2022-10-18T16:34:21.127Z,39.30
2022-10-18T16:49:22.585Z,39.70
2022-10-18T17:04:24.064Z,40.10
2022-10-18T17:19:25.514Z,40.50
2022-10-18T17:34:27.213Z,40.90
2022-10-18T17:49:28.777Z,41.40
2022-10-18T18:04:30.314Z,41.90
2022-10-18T18:19:31.780Z,42.50
2022-10-18T18:34:33.226Z,43.00
2022-10-18T18:49:34.678Z,43.50
2022-10-18T19:04:36.134Z,44.10
2022-10-18T19:19:37.576Z,44.40
2022-10-18T19:34:39.062Z,45.00
2022-10-18T19:49:40.515Z,45.50
2022-10-18T20:04:41.974Z,45.60
2022-10-18T20:19:43.750Z,46.00
2022-10-18T20:34:45.189Z,46.20
2022-10-18T20:49:46.636Z,46.30
2022-10-18T21:04:48.106Z,46.50
2022-10-18T21:19:49.564Z,46.50
2022-10-18T21:34:51.028Z,46.60
2022-10-18T21:49:52.498Z,46.70
2022-10-18T22:04:53.975Z,46.80
2022-10-18T22:19:55.439Z,46.80
2022-10-18T22:34:56.993Z,46.90
2022-10-18T22:49:58.457Z,47.00
2022-10-18T23:04:59.943Z,47.30
2022-10-18T23:20:01.405Z,48.00
2022-10-18T23:35:02.845Z,48.20
2022-10-18T23:50:04.287Z,48.80
